createdAt,value
2023-01-13T00:03:54.926Z,20.73
2023-01-13T00:06:53.265Z,24.10
2023-01-13T00:09:31.213Z,21.07
2023-01-13T00:12:22.488Z,28.97
2023-01-13T00:15:21.771Z,18.47
2023-01-13T00:18:16.657Z,22.07
2023-01-13T00:21:13.250Z,20.03
2023-01-13T00:24:09.698Z,21.00
2023-01-13T00:26:41.127Z,20.90
2023-01-13T00:29:12.014Z,26.40
2023-01-13T00:32:08.154Z,23.93
2023-01-13T00:34:51.044Z,21.53
2023-01-13T00:37:30.538Z,26.17
2023-01-13T00:40:18.428Z,19.13
2023-01-13T00:45:52.845Z,23.73
2023-01-13T00:48:40.807Z,25.80
2023-01-13T00:51:15.842Z,22.87
2023-01-13T00:53:51.356Z,24.93
2023-01-13T00:56:39.757Z,26.83
2023-01-13T00:59:16.253Z,21.33
2023-01-13T01:02:03.606Z,25.80
2023-01-13T01:04:51.959Z,28.53
2023-01-13T01:07:25.361Z,23.77
2023-01-13T01:10:04.688Z,23.30
2023-01-13T01:12:40.625Z,24.63
2023-01-13T01:15:17.924Z,23.60
2023-01-13T01:17:49.476Z,26.63
2023-01-13T01:20:36.744Z,30.60
2023-01-13T01:23:07.902Z,22.00
2023-01-13T01:28:21.727Z,26.43
2023-01-13T01:31:10.403Z,30.57
2023-01-13T01:33:48.664Z,20.23
2023-01-13T01:36:26.780Z,29.50
2023-01-13T01:38:59.077Z,28.03
2023-01-13T01:41:34.258Z,21.53
2023-01-13T01:44:09.869Z,29.67
2023-01-13T01:46:44.757Z,24.37
2023-01-13T01:49:25.948Z,24.43
2023-01-13T01:52:16.695Z,28.43
2023-01-13T01:55:05.365Z,21.70
2023-01-13T01:57:47.295Z,25.63
2023-01-13T02:00:37.302Z,26.03
2023-01-13T02:09:24.127Z,31.30
2023-01-13T02:12:15.657Z,19.33
2023-01-13T02:14:50.712Z,21.50
2023-01-13T02:17:44.741Z,25.70
2023-01-13T02:21:32.032Z,24.93
2023-01-13T02:25:06.469Z,24.23
2023-01-13T02:28:00.908Z,28.10
2023-01-13T02:31:13.976Z,29.13
2023-01-13T02:34:11.555Z,27.63
2023-01-13T02:36:52.680Z,25.63
2023-01-13T02:39:51.617Z,18.03
2023-01-13T02:42:51.539Z,23.60
2023-01-13T02:48:34.412Z,29.07
2023-01-13T02:51:19.840Z,15.93
2023-01-13T02:54:21.873Z,22.80
2023-01-13T02:57:04.292Z,22.33
2023-01-13T02:59:42.231Z,28.13
2023-01-13T03:02:18.726Z,26.40
2023-01-13T03:05:05.870Z,28.70
2023-01-13T03:08:30.737Z,19.47
2023-01-13T03:11:17.143Z,28.30
2023-01-13T03:14:40.247Z,23.67
2023-01-13T03:17:25.901Z,22.10
2023-01-13T03:20:08.603Z,22.83
2023-01-13T03:23:08.073Z,27.83
2023-01-13T03:25:53.551Z,22.37
2023-01-13T03:28:30.035Z,38.13
2023-01-13T03:31:27.627Z,21.37
2023-01-13T03:34:07.553Z,29.50
2023-01-13T03:36:40.859Z,25.27
2023-01-13T03:39:56.638Z,20.17
2023-01-13T03:42:31.787Z,29.77
2023-01-13T03:45:10.287Z,26.63
2023-01-13T03:48:02.244Z,30.87
2023-01-13T03:50:39.876Z,23.73
2023-01-13T03:56:23.013Z,24.53
2023-01-13T03:59:06.076Z,31.07
2023-01-13T04:02:19.298Z,19.90
2023-01-13T04:05:05.500Z,28.03
2023-01-13T04:07:50.422Z,31.60
2023-01-13T04:10:37.729Z,24.43
2023-01-13T04:13:21.599Z,22.50
2023-01-13T04:16:06.459Z,33.03
2023-01-13T04:18:43.532Z,23.87
2023-01-13T04:21:15.519Z,28.20
2023-01-13T04:23:46.914Z,20.43
2023-01-13T04:26:50.255Z,34.87
2023-01-13T04:29:20.941Z,25.60
2023-01-13T04:31:52.017Z,29.27
2023-01-13T04:34:20.771Z,21.97
2023-01-13T04:36:49.653Z,25.17
2023-01-13T04:39:26.261Z,22.93
2023-01-13T04:42:15.028Z,26.23
2023-01-13T04:44:46.313Z,34.83
2023-01-13T04:47:17.460Z,26.63
2023-01-13T04:49:46.184Z,22.47
2023-01-13T04:52:17.632Z,25.77
2023-01-13T04:54:46.460Z,24.90
2023-01-13T04:57:16.565Z,27.50
2023-01-13T04:59:45.266Z,20.87
2023-01-13T05:02:19.884Z,19.17
2023-01-13T05:04:49.288Z,22.83
2023-01-13T05:08:28.388Z,22.87
2023-01-13T05:14:25.799Z,31.70
2023-01-13T05:17:04.451Z,26.87
2023-01-13T05:19:39.373Z,23.17
2023-01-13T05:22:26.082Z,29.63
2023-01-13T05:25:15.460Z,28.37
2023-01-13T05:27:49.791Z,25.63
2023-01-13T05:30:22.512Z,21.83
2023-01-13T05:32:51.301Z,29.67
2023-01-13T05:35:22.425Z,26.77
2023-01-13T05:37:51.571Z,18.83
2023-01-13T05:40:38.668Z,20.73
2023-01-13T05:43:24.908Z,30.03
2023-01-13T05:46:08.627Z,28.93
2023-01-13T05:48:41.659Z,26.67
2023-01-13T05:51:46.557Z,30.07
2023-01-13T05:54:29.978Z,26.83
2023-01-13T05:57:00.076Z,24.30
2023-01-13T05:59:29.799Z,24.80
2023-01-13T06:01:59.835Z,19.73
2023-01-13T06:07:27.421Z,23.40
2023-01-13T06:10:00.467Z,20.27
2023-01-13T06:12:32.246Z,20.17
2023-01-13T06:15:01.421Z,18.10
2023-01-13T06:17:37.563Z,22.50
2023-01-13T06:20:09.811Z,21.80
2023-01-13T06:22:55.873Z,20.13
2023-01-13T06:25:41.613Z,16.00
2023-01-13T06:33:53.538Z,20.00
2023-01-13T06:36:30.563Z,13.97
2023-01-13T06:39:07.168Z,16.40
2023-01-13T06:41:54.532Z,13.03
2023-01-13T06:44:25.175Z,20.63
2023-01-13T06:46:54.233Z,16.73
2023-01-13T06:49:24.257Z,16.27
2023-01-13T06:51:55.852Z,19.17
2023-01-13T06:54:27.711Z,15.87
2023-01-13T06:57:15.965Z,11.53
2023-01-13T06:59:45.085Z,16.13
2023-01-13T07:02:14.000Z,17.23
2023-01-13T07:05:00.731Z,17.83
2023-01-13T07:07:45.844Z,10.03
2023-01-13T07:10:27.196Z,12.27
2023-01-13T07:13:25.659Z,16.57
2023-01-13T07:19:02.359Z,11.80
2023-01-13T07:21:39.231Z,14.47
2023-01-13T07:26:56.782Z,11.50
2023-01-13T07:29:30.564Z,13.80
2023-01-13T07:32:02.347Z,13.00
2023-01-13T07:34:31.489Z,18.77
2023-01-13T07:37:03.585Z,13.37
2023-01-13T07:39:35.237Z,15.13
2023-01-13T07:42:21.476Z,10.57
2023-01-13T07:45:12.376Z,19.33
2023-01-13T07:48:27.150Z,11.73
2023-01-13T07:51:26.919Z,12.07
2023-01-13T07:54:02.144Z,16.37
2023-01-13T07:56:30.937Z,16.83
2023-01-13T07:59:16.573Z,17.67
2023-01-13T08:01:55.420Z,13.97
2023-01-13T08:04:24.536Z,15.30
2023-01-13T08:06:53.366Z,17.90
2023-01-13T08:09:37.469Z,15.47
2023-01-13T08:12:52.220Z,17.70
2023-01-13T08:15:35.941Z,18.20
2023-01-13T08:18:05.998Z,9.77
2023-01-13T08:20:37.171Z,19.57
2023-01-13T08:25:51.881Z,16.43
2023-01-13T08:28:24.859Z,14.53
2023-01-13T08:33:43.269Z,20.33
2023-01-13T08:36:19.437Z,16.97
2023-01-13T08:39:03.790Z,19.37
2023-01-13T08:42:08.961Z,12.47
2023-01-13T08:45:03.906Z,15.67
2023-01-13T08:47:53.078Z,18.87
2023-01-13T08:50:51.083Z,14.83
2023-01-13T08:53:57.240Z,18.80
2023-01-13T08:56:54.417Z,17.57
2023-01-13T08:59:50.544Z,19.03
2023-01-13T09:05:17.695Z,18.90
2023-01-13T09:08:11.279Z,19.70
2023-01-13T09:11:29.121Z,14.80
2023-01-13T09:17:41.585Z,12.63
2023-01-13T09:20:49.111Z,15.00
2023-01-13T09:23:45.297Z,17.40
2023-01-13T09:26:46.205Z,17.37
2023-01-13T09:29:29.378Z,16.73
2023-01-13T09:35:04.787Z,17.83
2023-01-13T09:37:57.676Z,17.57
2023-01-13T09:40:26.730Z,19.50
2023-01-13T09:43:21.084Z,21.40
2023-01-13T09:46:07.590Z,14.40
2023-01-13T09:48:56.619Z,17.97
2023-01-13T09:51:35.358Z,19.83
2023-01-13T09:54:20.084Z,23.87
2023-01-13T09:59:55.022Z,22.27
2023-01-13T10:02:55.444Z,21.10
2023-01-13T10:05:43.660Z,20.33
2023-01-13T10:12:03.340Z,19.57
2023-01-13T10:18:25.027Z,25.50
2023-01-13T10:21:52.995Z,24.40
2023-01-13T10:28:44.383Z,21.67
2023-01-13T10:31:26.137Z,16.67
2023-01-13T10:38:09.310Z,21.83
2023-01-13T10:41:03.101Z,19.33
2023-01-13T10:44:02.511Z,18.97
2023-01-13T10:47:12.359Z,15.40
2023-01-13T10:50:45.213Z,22.87
2023-01-13T10:54:17.688Z,18.33
2023-01-13T10:57:01.018Z,20.17
2023-01-13T11:00:04.383Z,20.53
2023-01-13T11:02:49.995Z,18.37
2023-01-13T11:06:00.476Z,16.07
2023-01-13T11:08:48.024Z,18.87
2023-01-13T11:11:58.497Z,21.40
2023-01-13T11:15:20.230Z,22.57
2023-01-13T11:18:08.150Z,17.50
2023-01-13T11:21:03.778Z,20.97
2023-01-13T11:23:51.509Z,22.10
2023-01-13T11:26:50.123Z,12.87
2023-01-13T11:30:08.478Z,13.00
2023-01-13T11:32:59.102Z,19.87
2023-01-13T11:35:41.358Z,23.17
2023-01-13T11:38:47.919Z,20.37
2023-01-13T11:42:39.227Z,15.47
2023-01-13T11:45:33.008Z,16.80
2023-01-13T11:52:16.079Z,14.77
2023-01-13T11:55:31.438Z,16.03
2023-01-13T11:58:50.816Z,15.00
2023-01-13T12:02:04.636Z,13.90
2023-01-13T12:04:56.393Z,15.73
2023-01-13T12:07:59.793Z,16.40
2023-01-13T12:11:06.426Z,16.17
2023-01-13T12:14:06.210Z,20.07
2023-01-13T12:16:54.231Z,12.97
2023-01-13T12:19:42.650Z,15.43
2023-01-13T12:22:27.983Z,15.47
2023-01-13T12:25:13.676Z,18.33
2023-01-13T12:27:57.909Z,12.67
2023-01-13T12:31:11.450Z,14.73
2023-01-13T12:35:06.880Z,15.13
2023-01-13T12:38:11.387Z,11.07
2023-01-13T12:41:17.340Z,13.73
2023-01-13T12:48:05.283Z,15.13
2023-01-13T12:51:29.405Z,9.37
2023-01-13T13:02:10.188Z,11.23
2023-01-13T13:06:18.776Z,12.57
2023-01-13T13:09:49.099Z,7.10
2023-01-13T13:13:23.818Z,12.03
2023-01-13T13:16:48.483Z,13.57
2023-01-13T13:23:29.983Z,10.13
2023-01-13T13:26:44.880Z,9.97
2023-01-13T13:29:56.027Z,9.53
2023-01-13T13:33:23.152Z,10.83
2023-01-13T13:36:17.227Z,11.40
2023-01-13T13:40:14.165Z,11.03
2023-01-13T13:43:13.232Z,11.77
2023-01-13T13:47:09.163Z,12.40
2023-01-13T13:57:18.181Z,13.60
2023-01-13T14:00:17.768Z,12.97
2023-01-13T14:03:22.457Z,11.73
2023-01-13T14:06:45.600Z,9.77
2023-01-13T14:09:53.255Z,7.73
2023-01-13T14:13:15.459Z,9.57
2023-01-13T14:16:11.078Z,12.13
2023-01-13T14:19:27.952Z,9.27
2023-01-13T14:22:27.420Z,8.50
2023-01-13T14:28:55.826Z,7.97
2023-01-13T14:35:04.295Z,6.80
2023-01-13T14:38:18.027Z,13.07
2023-01-13T14:44:37.303Z,12.60
2023-01-13T14:48:05.592Z,9.43
2023-01-13T14:51:16.598Z,14.00
2023-01-13T14:54:07.716Z,11.37
2023-01-13T14:57:02.188Z,7.77
2023-01-13T15:00:02.953Z,11.33
2023-01-13T15:02:58.568Z,11.70
2023-01-13T15:09:00.899Z,6.73
2023-01-13T15:12:50.517Z,9.30
2023-01-13T15:16:05.120Z,8.63
2023-01-13T15:19:41.177Z,11.33
2023-01-13T15:22:58.417Z,5.67
2023-01-13T15:26:01.070Z,6.03
2023-01-13T15:28:50.050Z,8.20
2023-01-13T15:31:59.332Z,6.23
2023-01-13T15:35:28.427Z,6.57
2023-01-13T15:38:09.684Z,11.03
2023-01-13T15:48:10.826Z,8.47
2023-01-13T15:51:03.564Z,11.87
2023-01-13T15:54:06.476Z,11.77
2023-01-13T15:57:30.506Z,10.03
2023-01-13T16:00:53.271Z,9.77
2023-01-13T16:04:27.956Z,8.97
2023-01-13T16:07:33.394Z,11.60
2023-01-13T16:10:20.547Z,12.47
2023-01-13T16:13:31.714Z,6.93
2023-01-13T16:16:24.109Z,9.67
2023-01-13T16:26:33.221Z,8.80
2023-01-13T16:29:19.749Z,8.00
2023-01-13T16:31:55.789Z,9.90
2023-01-13T16:34:28.485Z,10.50
2023-01-13T16:36:57.409Z,7.23
2023-01-13T16:39:28.856Z,6.23
2023-01-13T16:42:16.230Z,8.17
2023-01-13T16:45:42.152Z,8.40
2023-01-13T16:48:44.301Z,9.80
2023-01-13T16:52:12.016Z,10.17
2023-01-13T16:59:44.230Z,8.63
2023-01-13T17:06:35.149Z,11.03
2023-01-13T17:09:22.555Z,13.07
2023-01-13T17:12:08.754Z,13.60
2023-01-13T17:14:54.286Z,10.47
2023-01-13T17:17:28.033Z,14.83
2023-01-13T17:20:03.157Z,16.20
2023-01-13T17:22:47.489Z,14.77
2023-01-13T17:25:44.858Z,17.70
2023-01-13T17:29:01.020Z,16.27
2023-01-13T17:32:05.274Z,11.90
2023-01-13T17:34:54.032Z,9.50
2023-01-13T17:37:52.221Z,12.37
2023-01-13T17:41:03.317Z,13.17
2023-01-13T17:43:39.229Z,9.47
2023-01-13T17:47:09.668Z,12.90
2023-01-13T17:49:50.326Z,9.50
2023-01-13T17:52:30.262Z,10.43
2023-01-13T17:55:38.879Z,17.80
2023-01-13T17:58:12.718Z,10.87
2023-01-13T18:00:49.209Z,17.40
2023-01-13T18:03:28.461Z,15.13
2023-01-13T18:06:19.467Z,15.17
2023-01-13T18:09:01.328Z,16.17
2023-01-13T18:11:52.681Z,9.57
2023-01-13T18:14:32.179Z,15.33
2023-01-13T18:17:26.204Z,19.53
2023-01-13T18:20:29.660Z,21.27
2023-01-13T18:23:45.450Z,16.57
2023-01-13T18:26:45.129Z,18.13
2023-01-13T18:29:40.690Z,13.13
2023-01-13T18:32:21.825Z,15.07
2023-01-13T18:35:05.279Z,15.97
2023-01-13T18:37:54.786Z,18.00
2023-01-13T18:40:29.591Z,12.20
2023-01-13T18:43:01.789Z,14.37
2023-01-13T18:45:45.066Z,10.33
2023-01-13T18:48:15.104Z,15.87
2023-01-13T18:50:46.727Z,12.17
2023-01-13T18:53:17.643Z,13.07
2023-01-13T18:55:51.503Z,12.43
2023-01-13T18:58:30.178Z,11.60
2023-01-13T19:01:03.648Z,16.40
2023-01-13T19:03:32.676Z,10.87
2023-01-13T19:06:09.224Z,12.90
2023-01-13T19:08:41.748Z,10.53
2023-01-13T19:11:12.440Z,14.23
2023-01-13T19:13:42.358Z,10.67
2023-01-13T19:16:14.421Z,12.53
2023-01-13T19:18:43.158Z,25.63
2023-01-13T19:21:13.519Z,12.47
2023-01-13T19:23:45.041Z,11.87
2023-01-13T19:26:14.735Z,14.73
2023-01-13T19:28:44.878Z,9.00
2023-01-13T19:31:17.232Z,15.60
2023-01-13T19:33:47.424Z,15.37
2023-01-13T19:36:15.924Z,13.07
2023-01-13T19:38:46.105Z,15.63
2023-01-13T19:41:35.060Z,15.60
2023-01-13T19:44:20.822Z,9.57
2023-01-13T19:46:49.368Z,15.93
2023-01-13T19:49:25.593Z,11.83
2023-01-13T19:52:01.334Z,13.17
2023-01-13T19:54:32.754Z,10.03
2023-01-13T19:57:25.252Z,17.77
2023-01-13T19:59:54.961Z,10.90
2023-01-13T20:02:41.054Z,8.27
2023-01-13T20:08:08.922Z,17.10
2023-01-13T20:11:20.869Z,14.50
2023-01-13T20:13:52.587Z,8.93
2023-01-13T20:16:24.243Z,12.83
2023-01-13T20:19:06.468Z,9.90
2023-01-13T20:21:49.833Z,8.57
2023-01-13T20:27:25.096Z,8.83
2023-01-13T20:29:57.717Z,4.63
2023-01-13T20:32:43.752Z,9.03
2023-01-13T20:35:49.799Z,5.80
2023-01-13T20:38:44.470Z,4.83
2023-01-13T20:41:33.032Z,5.17
2023-01-13T20:44:04.196Z,4.33
2023-01-13T20:46:49.278Z,5.80
2023-01-13T20:49:20.517Z,5.07
2023-01-13T20:52:31.895Z,4.90
2023-01-13T20:55:03.058Z,5.63
2023-01-13T20:57:42.266Z,2.50
2023-01-13T21:00:40.289Z,4.43
2023-01-13T21:03:22.401Z,5.27
2023-01-13T21:05:53.783Z,5.83
2023-01-13T21:08:49.835Z,6.20
2023-01-13T21:15:10.931Z,5.80
2023-01-13T21:18:07.476Z,6.10
2023-01-13T21:20:45.326Z,7.47
2023-01-13T21:23:15.802Z,8.73
2023-01-13T21:25:46.764Z,8.20
2023-01-13T21:28:22.460Z,5.10
2023-01-13T21:30:54.155Z,6.47
2023-01-13T21:33:30.114Z,6.43
2023-01-13T21:36:06.941Z,7.17
2023-01-13T21:38:42.974Z,5.30
2023-01-13T21:41:37.163Z,8.63
2023-01-13T21:44:28.357Z,6.67
2023-01-13T21:47:19.696Z,6.57
2023-01-13T21:49:59.896Z,5.07
2023-01-13T21:52:39.328Z,6.50
2023-01-13T21:55:43.991Z,4.50
2023-01-13T21:58:34.310Z,8.13
2023-01-13T22:07:26.192Z,8.57
2023-01-13T22:09:59.780Z,8.90
2023-01-13T22:12:29.811Z,6.23
2023-01-13T22:14:58.663Z,8.73
2023-01-13T22:17:32.522Z,5.80
2023-01-13T22:20:02.545Z,6.37
2023-01-13T22:22:44.510Z,5.43
2023-01-13T22:25:20.414Z,7.53
2023-01-13T22:27:54.217Z,10.63
2023-01-13T22:30:51.333Z,10.43
2023-01-13T22:33:40.407Z,15.17
2023-01-13T22:39:08.230Z,9.50
2023-01-13T22:41:45.622Z,7.67
2023-01-13T22:44:15.787Z,6.63
2023-01-13T22:46:53.108Z,9.93
2023-01-13T22:49:23.192Z,4.20
2023-01-13T22:51:52.531Z,2.30
2023-01-13T22:54:23.416Z,7.97
2023-01-13T22:57:03.813Z,5.30
2023-01-13T22:59:33.425Z,3.43
2023-01-13T23:02:07.282Z,4.37
2023-01-13T23:04:51.270Z,2.60
2023-01-13T23:07:45.735Z,3.80
2023-01-13T23:10:25.485Z,6.20
2023-01-13T23:12:56.930Z,4.83
2023-01-13T23:18:11.502Z,9.67
2023-01-13T23:20:40.385Z,10.40
2023-01-13T23:26:33.727Z,11.83
2023-01-13T23:31:56.229Z,9.93
2023-01-13T23:34:27.052Z,8.90
2023-01-13T23:36:55.676Z,13.77
2023-01-13T23:39:35.240Z,12.07
2023-01-13T23:42:37.997Z,11.67
2023-01-13T23:45:19.006Z,14.70
2023-01-13T23:48:03.918Z,10.90
